Time;durP1;ratioP1;P1;durP2;ratioP2;P2;SDS_P1;SDS_P2;PMS_P1;PMS_P2;Temp;Humidity;BMP_temperature;BMP_pressure;BME280_temperature;BME280_humidity;BME280_pressure;Samples;Min_cycle;Max_cycle;Signal;HPM_P1;HPM_P2
2021/12/06 00:02:24;;;;;;;1999.90;999.90;;;3.90;99.90;;;;;;5054410;28;20454;-70
2021/12/06 00:04:52;;;;;;;1999.90;999.90;;;3.90;99.90;;;;;;5061551;28;20449;-70
2021/12/06 00:07:21;;;;;;;1999.90;999.90;;;3.90;99.90;;;;;;5071994;28;20466;-71
2021/12/06 00:09:48;;;;;;;1999.90;999.90;;;3.90;99.90;;;;;;5053679;28;20905;-68
2021/12/06 00:12:17;;;;;;;1999.90;999.90;;;3.90;99.90;;;;;;5068405;28;20480;-70
2021/12/06 00:14:44;;;;;;;1999.90;999.90;;;4.00;99.90;;;;;;5055346;28;20450;-70
2021/12/06 00:17:13;;;;;;;1999.90;999.90;;;4.00;99.90;;;;;;5051830;28;21192;-70
2021/12/06 00:19:42;;;;;;;1999.90;999.90;;;4.00;99.90;;;;;;5058315;28;20439;-70
2021/12/06 00:22:12;;;;;;;1999.90;999.90;;;3.90;99.90;;;;;;5052114;28;20525;-70
2021/12/06 00:24:40;;;;;;;1999.90;999.90;;;3.90;99.90;;;;;;5052039;28;20950;-70
2021/12/06 00:27:07;;;;;;;1999.90;999.90;;;3.90;99.90;;;;;;5052186;28;20508;-71
2021/12/06 00:29:36;;;;;;;1999.90;999.90;;;3.90;99.90;;;;;;5057560;28;20986;-70
2021/12/06 00:32:03;;;;;;;1999.90;999.90;;;3.90;99.90;;;;;;5051635;28;20644;-70
2021/12/06 00:34:33;;;;;;;1999.90;999.90;;;3.90;99.90;;;;;;5052183;28;20500;-69
2021/12/06 00:37:16;;;;;;;1999.90;999.90;;;3.80;99.90;;;;;;5051875;28;20477;-70
2021/12/06 00:39:43;;;;;;;1999.90;999.90;;;3.80;99.90;;;;;;5057508;28;20446;-70
2021/12/06 00:42:11;;;;;;;1999.90;999.90;;;3.70;99.90;;;;;;5051650;28;20491;-70
2021/12/06 00:44:39;;;;;;;1999.90;999.90;;;3.90;99.90;;;;;;5051663;28;20458;-72
2021/12/06 00:47:06;;;;;;;1999.90;999.90;;;3.80;99.90;;;;;;5051745;28;20520;-71
2021/12/06 00:49:33;;;;;;;1999.90;999.90;;;3.70;99.90;;;;;;5057936;28;20566;-70
2021/12/06 00:52:00;;;;;;;1999.90;999.90;;;3.70;99.90;;;;;;5062477;28;20449;-70
2021/12/06 00:54:29;;;;;;;1999.90;999.90;;;3.70;99.90;;;;;;5062728;28;20473;-70
2021/12/06 00:56:56;;;;;;;1999.90;999.90;;;3.60;99.90;;;;;;5052589;28;20475;-70
2021/12/06 00:59:22;;;;;;;1999.90;999.90;;;3.60;99.90;;;;;;5057614;28;20448;-71
2021/12/06 01:01:51;;;;;;;1999.90;999.90;;;3.70;99.90;;;;;;5050875;28;20931;-70
2021/12/06 01:04:18;;;;;;;1999.90;999.90;;;3.60;99.90;;;;;;5051554;28;20452;-70
2021/12/06 01:06:44;;;;;;;1999.90;999.90;;;3.60;99.90;;;;;;5051444;28;20996;-70
2021/12/06 01:09:11;;;;;;;1999.90;999.90;;;3.70;99.90;;;;;;5057638;28;20478;-70
2021/12/06 01:11:38;;;;;;;1999.90;999.90;;;3.60;99.90;;;;;;5051482;28;20492;-70
2021/12/06 01:14:05;;;;;;;1999.90;999.90;;;3.50;99.90;;;;;;5055253;28;20496;-70
2021/12/06 01:16:32;;;;;;;1999.90;999.90;;;3.40;99.90;;;;;;5064899;28;20519;-69
2021/12/06 01:19:00;;;;;;;1999.90;999.90;;;3.40;99.90;;;;;;5069200;28;20442;-70
2021/12/06 01:21:38;;;;;;;1999.90;999.90;;;3.30;99.90;;;;;;5070733;28;20953;-69
2021/12/06 01:24:05;;;;;;;1999.90;999.90;;;3.30;99.90;;;;;;5063422;28;20446;-70
2021/12/06 01:26:54;;;;;;;1999.90;999.90;;;3.30;99.90;;;;;;5055098;28;20457;-70
2021/12/06 01:29:44;;;;;;;1999.90;999.90;;;3.40;99.90;;;;;;5070855;28;20478;-70
2021/12/06 01:32:19;;;;;;;1999.90;999.90;;;3.50;99.90;;;;;;5055454;28;20504;-70
2021/12/06 01:40:28;;;;;;;1999.90;999.90;;;3.30;99.90;;;;;;5060994;28;20460;-70
2021/12/06 01:42:55;;;;;;;1999.90;999.90;;;3.20;99.90;;;;;;5056346;28;20446;-70
2021/12/06 01:45:22;;;;;;;1999.90;999.90;;;3.30;99.90;;;;;;5054680;28;20457;-70
2021/12/06 01:47:49;;;;;;;1999.90;999.90;;;3.20;99.90;;;;;;5069363;28;20494;-70
2021/12/06 01:50:20;;;;;;;1999.90;999.90;;;3.10;99.90;;;;;;5063373;28;20489;-70
2021/12/06 01:52:50;;;;;;;1999.90;999.90;;;3.10;99.90;;;;;;5054813;28;20454;-70
2021/12/06 01:55:19;;;;;;;1999.90;999.90;;;3.20;99.90;;;;;;5054471;28;20503;-71
2021/12/06 01:57:46;;;;;;;1999.90;999.90;;;3.10;99.90;;;;;;5068293;28;20453;-70
2021/12/06 02:00:17;;;;;;;1999.90;999.90;;;3.20;99.90;;;;;;5064099;28;20446;-70
2021/12/06 02:02:44;;;;;;;1999.90;999.90;;;3.10;99.90;;;;;;5054412;28;20455;-70
2021/12/06 02:05:11;;;;;;;1999.90;999.90;;;3.00;99.90;;;;;;5054322;28;20442;-69
2021/12/06 02:07:39;;;;;;;1999.90;999.90;;;3.00;99.90;;;;;;5068972;28;20503;-70
2021/12/06 02:10:07;;;;;;;1999.90;999.90;;;3.00;99.90;;;;;;5064855;28;20559;-70
2021/12/06 02:12:34;;;;;;;1999.90;999.90;;;3.00;99.90;;;;;;5054548;28;20450;-69
2021/12/06 02:15:06;;;;;;;1999.90;999.90;;;3.00;99.90;;;;;;5054619;28;20457;-70
2021/12/06 02:17:37;;;;;;;1999.90;999.90;;;3.00;99.90;;;;;;5067849;28;20449;-71
2021/12/06 02:20:08;;;;;;;1999.90;999.90;;;3.00;99.90;;;;;;5065523;28;20521;-70
2021/12/06 02:22:38;;;;;;;1999.90;999.90;;;3.10;99.90;;;;;;5054264;28;20815;-71
2021/12/06 02:25:08;;;;;;;1999.90;999.90;;;3.10;99.90;;;;;;5054322;28;20446;-70
2021/12/06 02:27:35;;;;;;;1999.90;999.90;;;3.00;99.90;;;;;;5065949;28;20945;-70
2021/12/06 02:30:05;;;;;;;1999.90;999.90;;;3.00;99.90;;;;;;5065612;28;20486;-70
2021/12/06 02:32:34;;;;;;;1999.90;999.90;;;3.00;99.90;;;;;;5054528;28;20856;-70
2021/12/06 02:35:01;;;;;;;1999.90;999.90;;;3.00;99.90;;;;;;5054060;28;20453;-70
2021/12/06 02:37:31;;;;;;;1999.90;999.90;;;3.10;99.90;;;;;;5064466;28;20474;-71
2021/12/06 02:40:01;;;;;;;1999.90;999.90;;;3.10;99.90;;;;;;5073978;28;20448;-70
2021/12/06 02:42:28;;;;;;;1999.90;999.90;;;3.10;99.90;;;;;;5073254;28;20506;-70
2021/12/06 02:44:54;;;;;;;1999.90;999.90;;;3.10;99.90;;;;;;5073224;28;20958;-70
2021/12/06 02:47:21;;;;;;;1999.90;999.90;;;3.10;99.90;;;;;;5064428;28;20527;-71
2021/12/06 02:49:49;;;;;;;1999.90;999.90;;;3.20;99.90;;;;;;5073827;28;20489;-72
2021/12/06 02:52:17;;;;;;;1999.90;999.90;;;3.10;99.90;;;;;;5068548;28;20442;-70
2021/12/06 02:54:48;;;;;;;1999.90;999.90;;;3.10;99.90;;;;;;5053428;28;20446;-70
2021/12/06 02:57:23;;;;;;;1999.90;999.90;;;3.00;99.90;;;;;;5058531;28;20564;-71
2021/12/06 02:59:50;;;;;;;1999.90;999.90;;;2.90;99.90;;;;;;5073492;28;20456;-71
2021/12/06 03:02:19;;;;;;;1999.90;999.90;;;2.80;99.90;;;;;;5072152;28;20511;-70
2021/12/06 03:04:47;;;;;;;1999.90;999.90;;;2.80;99.90;;;;;;5073435;28;20449;-70
2021/12/06 03:07:15;;;;;;;1999.90;999.90;;;2.80;99.90;;;;;;5064183;28;20523;-69
2021/12/06 03:09:42;;;;;;;1999.90;999.90;;;2.70;99.90;;;;;;5073207;28;20539;-70
2021/12/06 03:12:12;;;;;;;1999.90;999.90;;;2.80;99.90;;;;;;5072351;28;20507;-69
2021/12/06 03:14:42;;;;;;;1999.90;999.90;;;2.80;99.90;;;;;;5073434;28;20445;-71
2021/12/06 03:17:12;;;;;;;1999.90;999.90;;;2.80;99.90;;;;;;5064097;28;20469;-70
2021/12/06 03:19:38;;;;;;;1999.90;999.90;;;2.80;99.90;;;;;;5064493;28;20449;-70
2021/12/06 03:22:08;;;;;;;1999.90;999.90;;;2.70;99.90;;;;;;5053369;28;20454;-70
2021/12/06 03:24:36;;;;;;;1999.90;999.90;;;2.80;99.90;;;;;;5053201;28;20500;-71
2021/12/06 03:27:03;;;;;;;1999.90;999.90;;;2.80;99.90;;;;;;5061646;28;20810;-70
2021/12/06 03:29:30;;;;;;;1999.90;999.90;;;2.80;99.90;;;;;;5052893;28;20474;-70
2021/12/06 03:31:59;;;;;;;1999.90;999.90;;;2.70;99.90;;;;;;5052807;28;20443;-70
2021/12/06 03:34:26;;;;;;;1999.90;999.90;;;2.80;99.90;;;;;;5053011;28;20450;-70
2021/12/06 03:36:54;;;;;;;1999.90;999.90;;;2.80;99.90;;;;;;5060253;28;20476;-70
2021/12/06 03:39:24;;;;;;;1999.90;999.90;;;2.80;99.90;;;;;;5053070;28;20450;-69
2021/12/06 03:41:53;;;;;;;1999.90;999.90;;;2.80;99.90;;;;;;5064229;28;20503;-70
2021/12/06 03:44:20;;;;;;;1999.90;999.90;;;2.80;99.90;;;;;;5062658;28;20485;-69
2021/12/06 03:46:49;;;;;;;1999.90;999.90;;;2.80;99.90;;;;;;5070181;28;20592;-68
2021/12/06 03:49:18;;;;;;;1999.90;999.90;;;2.90;99.90;;;;;;5075822;28;20519;-68
2021/12/06 03:51:46;;;;;;;1999.90;999.90;;;2.90;99.90;;;;;;5072033;28;20454;-69
2021/12/06 03:54:16;;;;;;;1999.90;999.90;;;2.90;99.90;;;;;;5063425;28;20531;-68
2021/12/06 03:56:44;;;;;;;1999.90;999.90;;;2.80;99.90;;;;;;5061679;28;20816;-67
2021/12/06 03:59:11;;;;;;;1999.90;999.90;;;2.80;99.90;;;;;;5070564;28;20453;-68
2021/12/06 04:01:40;;;;;;;1999.90;999.90;;;2.80;99.90;;;;;;5066462;28;20869;-70
2021/12/06 04:04:08;;;;;;;1999.90;999.90;;;2.80;99.90;;;;;;5052296;28;20486;-70
2021/12/06 04:06:38;;;;;;;1999.90;999.90;;;2.70;99.90;;;;;;5053178;28;20493;-70
2021/12/06 04:09:06;;;;;;;1999.90;999.90;;;2.70;99.90;;;;;;5064974;28;20483;-71
2021/12/06 04:11:32;;;;;;;1999.90;999.90;;;2.60;99.90;;;;;;5071897;28;21034;-70
2021/12/06 04:13:59;;;;;;;1999.90;999.90;;;2.70;99.90;;;;;;5060182;28;20454;-70
2021/12/06 04:16:26;;;;;;;1999.90;999.90;;;2.70;99.90;;;;;;5063574;28;20465;-70
2021/12/06 04:18:53;;;;;;;1999.90;999.90;;;2.60;99.90;;;;;;5056630;28;20453;-70
2021/12/06 04:21:21;;;;;;;1999.90;999.90;;;2.70;99.90;;;;;;5054184;28;20454;-69
2021/12/06 04:23:49;;;;;;;1999.90;999.90;;;2.60;99.90;;;;;;5053501;28;20492;-70
2021/12/06 04:26:16;;;;;;;1999.90;999.90;;;2.60;99.90;;;;;;5061757;28;20530;-70
2021/12/06 04:28:49;;;;;;;1999.90;999.90;;;2.60;99.90;;;;;;5057805;28;20964;-70
2021/12/06 04:31:16;;;;;;;1999.90;999.90;;;2.50;99.90;;;;;;5052087;28;20481;-70
2021/12/06 04:33:43;;;;;;;1999.90;999.90;;;2.60;99.90;;;;;;5051873;28;20480;-70
2021/12/06 04:36:10;;;;;;;1999.90;999.90;;;2.60;99.90;;;;;;5056103;28;20466;-70
2021/12/06 04:38:37;;;;;;;1999.90;999.90;;;2.60;99.90;;;;;;5064501;28;20884;-70
2021/12/06 04:41:05;;;;;;;1999.90;999.90;;;2.60;99.90;;;;;;5070822;28;20450;-70
2021/12/06 04:43:32;;;;;;;1999.90;999.90;;;2.50;99.90;;;;;;5071826;28;20445;-70
2021/12/06 04:45:58;;;;;;;1999.90;999.90;;;2.50;99.90;;;;;;5064430;28;20894;-70
2021/12/06 04:48:25;;;;;;;1999.90;999.90;;;2.40;99.90;;;;;;5062200;28;20993;-70
2021/12/06 04:50:52;;;;;;;1999.90;999.90;;;2.40;99.90;;;;;;5070425;28;20522;-70
2021/12/06 04:53:23;;;;;;;1999.90;999.90;;;2.30;99.90;;;;;;5071934;28;20445;-70
2021/12/06 04:55:53;;;;;;;1999.90;999.90;;;2.40;99.90;;;;;;5070941;28;20526;-70
2021/12/06 04:58:24;;;;;;;1999.90;999.90;;;2.30;99.90;;;;;;5061836;28;20594;-69
2021/12/06 05:00:57;;;;;;;1999.90;999.90;;;2.30;99.90;;;;;;5051886;28;20930;-72
2021/12/06 05:03:25;;;;;;;1999.90;999.90;;;2.20;99.90;;;;;;5055659;28;20450;-70
2021/12/06 05:05:55;;;;;;;1999.90;999.90;;;2.30;99.90;;;;;;5061060;28;20469;-68
2021/12/06 05:08:25;;;;;;;1999.90;999.90;;;2.30;99.90;;;;;;5065569;28;20454;-68
2021/12/06 05:10:53;;;;;;;1999.90;999.90;;;2.30;99.90;;;;;;5055435;28;20528;-69
2021/12/06 05:13:23;;;;;;;1999.90;999.90;;;2.20;99.90;;;;;;5055423;28;20450;-70
2021/12/06 05:15:50;;;;;;;1999.90;999.90;;;2.10;99.90;;;;;;5056952;28;20478;-71
2021/12/06 05:18:17;;;;;;;1999.90;999.90;;;2.00;99.90;;;;;;5075506;28;20503;-70
2021/12/06 05:20:44;;;;;;;1999.90;999.90;;;2.00;99.90;;;;;;5074643;28;20433;-70
2021/12/06 05:23:12;;;;;;;1999.90;999.90;;;1.90;99.90;;;;;;5055779;28;20446;-70
2021/12/06 05:25:39;;;;;;;1999.90;999.90;;;2.00;99.90;;;;;;5058467;28;20481;-70
2021/12/06 05:28:07;;;;;;;1999.90;999.90;;;2.00;99.90;;;;;;5067831;28;20462;-70
2021/12/06 05:30:37;;;;;;;1999.90;999.90;;;2.00;99.90;;;;;;5055262;28;20555;-70
2021/12/06 05:33:04;;;;;;;1999.90;999.90;;;2.00;99.90;;;;;;5055209;28;20810;-70
2021/12/06 05:35:31;;;;;;;1999.90;999.90;;;2.00;99.90;;;;;;5056774;28;20466;-71
2021/12/06 05:38:00;;;;;;;1999.90;999.90;;;2.00;99.90;;;;;;5068905;28;20942;-70
2021/12/06 05:40:30;;;;;;;1999.90;999.90;;;2.10;99.90;;;;;;5055160;28;20438;-70
2021/12/06 05:42:58;;;;;;;1999.90;999.90;;;2.00;99.90;;;;;;5055013;28;20474;-70
2021/12/06 05:45:27;;;;;;;1999.90;999.90;;;2.00;99.90;;;;;;5066049;28;20457;-70
2021/12/06 05:47:56;;;;;;;1999.90;999.90;;;2.00;99.90;;;;;;5059583;28;20844;-69
2021/12/06 05:50:24;;;;;;;1999.90;999.90;;;2.10;99.90;;;;;;5063371;28;20478;-70
2021/12/06 05:52:53;;;;;;;1999.90;999.90;;;2.10;99.90;;;;;;5054628;28;20472;-69
2021/12/06 05:55:20;;;;;;;1999.90;999.90;;;2.10;99.90;;;;;;5064482;28;20453;-70
2021/12/06 05:57:47;;;;;;;1999.90;999.90;;;2.10;99.90;;;;;;5070772;28;20484;-70
2021/12/06 06:00:18;;;;;;;1999.90;999.90;;;2.10;99.90;;;;;;5063574;28;20494;-70
2021/12/06 06:02:46;;;;;;;1999.90;999.90;;;2.10;99.90;;;;;;5074450;28;20909;-70
2021/12/06 06:05:18;;;;;;;1999.90;999.90;;;2.10;99.90;;;;;;5072330;28;20945;-70
2021/12/06 06:07:45;;;;;;;1999.90;999.90;;;2.00;99.90;;;;;;5069379;28;20933;-69
2021/12/06 06:10:12;;;;;;;1999.90;999.90;;;2.10;99.90;;;;;;5054894;28;20519;-71
2021/12/06 06:12:39;;;;;;;1999.90;999.90;;;2.10;99.90;;;;;;5063677;28;20446;-70
2021/12/06 06:15:06;;;;;;;1999.90;999.90;;;2.10;99.90;;;;;;5068406;28;20500;-71
2021/12/06 06:17:39;;;;;;;1999.90;999.90;;;2.00;99.90;;;;;;5055259;28;20454;-70
2021/12/06 06:20:09;;;;;;;1999.90;999.90;;;2.00;99.90;;;;;;5068272;28;20454;-72
2021/12/06 06:22:37;;;;;;;1999.90;999.90;;;2.00;99.90;;;;;;5074315;28;20496;-70
2021/12/06 06:25:04;;;;;;;1999.90;999.90;;;2.10;99.90;;;;;;5068796;28;20454;-70
2021/12/06 06:27:31;;;;;;;1999.90;999.90;;;2.20;99.90;;;;;;5054677;28;20532;-69
2021/12/06 06:29:57;;;;;;;1999.90;999.90;;;2.20;99.90;;;;;;5073093;28;20518;-70
2021/12/06 06:32:24;;;;;;;1999.90;999.90;;;2.10;99.90;;;;;;5074228;28;20995;-70
2021/12/06 06:34:51;;;;;;;1999.90;999.90;;;2.20;99.90;;;;;;5070419;28;21003;-69
2021/12/06 06:37:17;;;;;;;1999.90;999.90;;;2.20;99.90;;;;;;5053987;28;20466;-68
2021/12/06 06:39:45;;;;;;;1999.90;999.90;;;2.30;99.90;;;;;;5071840;28;20867;-70
2021/12/06 06:42:12;;;;;;;1999.90;999.90;;;2.30;99.90;;;;;;5073758;28;20446;-71
2021/12/06 06:44:39;;;;;;;1999.90;999.90;;;2.30;99.90;;;;;;5071740;28;20953;-71
2021/12/06 06:47:05;;;;;;;1999.90;999.90;;;2.30;99.90;;;;;;5053974;28;20474;-71
2021/12/06 06:49:32;;;;;;;1999.90;999.90;;;2.30;99.90;;;;;;5054232;28;20938;-70
2021/12/06 06:51:59;;;;;;;1999.90;999.90;;;2.30;99.90;;;;;;5053439;28;20482;-71
2021/12/06 06:54:26;;;;;;;1999.90;999.90;;;2.30;99.90;;;;;;5053815;28;20930;-71
2021/12/06 06:56:54;;;;;;;1999.90;999.90;;;2.30;99.90;;;;;;5054545;28;20925;-71
2021/12/06 06:59:21;;;;;;;1999.90;999.90;;;2.20;99.90;;;;;;5053388;28;20503;-71
2021/12/06 07:01:48;;;;;;;1999.90;999.90;;;2.30;99.90;;;;;;5052739;28;20450;-71
2021/12/06 07:04:14;;;;;;;1999.90;999.90;;;2.30;99.90;;;;;;5053625;28;20446;-70
2021/12/06 07:06:42;;;;;;;1999.90;999.90;;;2.30;99.90;;;;;;5052701;28;20520;-71
2021/12/06 07:09:09;;;;;;;1999.90;999.90;;;2.30;99.90;;;;;;5053040;28;20454;-71
2021/12/06 07:11:36;;;;;;;1999.90;999.90;;;2.30;99.90;;;;;;5052824;28;20485;-70
2021/12/06 07:14:04;;;;;;;1999.90;999.90;;;2.30;99.90;;;;;;5053183;28;20931;-71
2021/12/06 07:16:31;;;;;;;1999.90;999.90;;;2.40;99.90;;;;;;5053101;28;20540;-71
2021/12/06 07:18:58;;;;;;;1999.90;999.90;;;2.40;99.90;;;;;;5052798;28;20450;-71
2021/12/06 07:21:25;;;;;;;1999.90;999.90;;;2.30;99.90;;;;;;5052157;28;20442;-71
2021/12/06 07:23:52;;;;;;;1999.90;999.90;;;2.40;99.90;;;;;;5092004;28;20470;-69
2021/12/06 07:26:21;;;;;;;1999.90;999.90;;;2.40;99.90;;;;;;5086634;28;20534;-69
2021/12/06 07:28:50;;;;;;;1999.90;999.90;;;2.40;99.90;;;;;;5072320;28;20446;-69
2021/12/06 07:31:19;;;;;;;1999.90;999.90;;;2.30;99.90;;;;;;5063201;28;20543;-69
2021/12/06 07:33:48;;;;;;;1999.90;999.90;;;2.30;99.90;;;;;;5054908;28;20446;-69
2021/12/06 07:36:14;;;;;;;1999.90;999.90;;;2.30;99.90;;;;;;5057978;28;20462;-68
2021/12/06 07:38:42;;;;;;;1999.90;999.90;;;2.30;99.90;;;;;;5081042;28;20444;-69
2021/12/06 07:41:15;;;;;;;1999.90;999.90;;;2.30;99.90;;;;;;5093557;28;20461;-71
2021/12/06 07:43:43;;;;;;;1999.90;999.90;;;2.20;99.90;;;;;;5093058;28;20428;-71
2021/12/06 07:46:10;;;;;;;1999.90;999.90;;;2.30;99.90;;;;;;5086766;28;20547;-72
2021/12/06 07:48:39;;;;;;;1999.90;999.90;;;2.20;99.90;;;;;;5070401;28;20857;-71
2021/12/06 07:51:06;;;;;;;1999.90;999.90;;;2.20;99.90;;;;;;5071234;28;20484;-71
2021/12/06 07:53:35;;;;;;;1999.90;999.90;;;2.10;99.90;;;;;;5070865;28;20450;-71
2021/12/06 07:56:02;;;;;;;1999.90;999.90;;;2.20;99.90;;;;;;5068442;28;20466;-71
2021/12/06 07:58:29;;;;;;;1999.90;999.90;;;2.10;99.90;;;;;;5052702;28;20504;-71
2021/12/06 08:00:56;;;;;;;1999.90;999.90;;;2.10;99.90;;;;;;5051670;28;20442;-72
2021/12/06 08:03:26;;;;;;;1999.90;999.90;;;2.20;99.90;;;;;;5052636;28;20445;-71
2021/12/06 08:05:55;;;;;;;1999.90;999.90;;;2.20;99.90;;;;;;5054820;28;20923;-72
2021/12/06 08:08:23;;;;;;;1999.90;999.90;;;2.10;99.90;;;;;;5072318;28;20503;-72
2021/12/06 08:10:52;;;;;;;1999.90;999.90;;;2.20;99.90;;;;;;5071908;28;20446;-72
2021/12/06 08:13:21;;;;;;;1999.90;999.90;;;2.30;99.90;;;;;;5072046;28;20839;-70
2021/12/06 08:15:49;;;;;;;1999.90;999.90;;;2.30;99.90;;;;;;5079412;28;20469;-71
2021/12/06 08:18:16;;;;;;;1999.90;999.90;;;2.20;99.90;;;;;;5072359;28;20445;-71
2021/12/06 08:20:44;;;;;;;1999.90;999.90;;;2.30;99.90;;;;;;5071317;28;20486;-68
2021/12/06 08:23:12;;;;;;;1999.90;999.90;;;2.30;99.90;;;;;;5057523;28;20446;-69
2021/12/06 08:25:40;;;;;;;1999.90;999.90;;;2.30;99.90;;;;;;5065988;28;20469;-69
2021/12/06 08:28:07;;;;;;;1999.90;999.90;;;2.20;99.90;;;;;;5059500;28;20441;-69
2021/12/06 08:30:34;;;;;;;1999.90;999.90;;;2.10;99.90;;;;;;5072011;28;20490;-69
2021/12/06 08:33:03;;;;;;;1999.90;999.90;;;2.20;99.90;;;;;;5072166;28;20551;-69
2021/12/06 08:35:31;;;;;;;1999.90;999.90;;;2.20;99.90;;;;;;5071026;28;20461;-69
2021/12/06 08:37:59;;;;;;;1999.90;999.90;;;2.30;99.90;;;;;;5072022;28;20452;-69
2021/12/06 08:40:30;;;;;;;1999.90;999.90;;;2.20;99.90;;;;;;5064627;28;20891;-71
2021/12/06 08:42:57;;;;;;;1999.90;999.90;;;2.30;99.90;;;;;;5057003;28;20450;-71
2021/12/06 08:45:27;;;;;;;1999.90;999.90;;;2.30;99.90;;;;;;5057610;28;20523;-71
2021/12/06 08:47:56;;;;;;;1999.90;999.90;;;2.30;99.90;;;;;;5052017;28;20429;-72
2021/12/06 08:50:24;;;;;;;1999.90;999.90;;;2.40;99.90;;;;;;5059132;28;20512;-72
2021/12/06 08:52:52;;;;;;;1999.90;999.90;;;2.30;99.90;;;;;;5051132;28;20478;-72
2021/12/06 08:55:21;;;;;;;1999.90;999.90;;;2.30;99.90;;;;;;5050274;28;20604;-72
2021/12/06 08:57:50;;;;;;;1999.90;999.90;;;2.40;99.90;;;;;;5051698;28;20454;-72
2021/12/06 09:00:20;;;;;;;1999.90;999.90;;;2.30;99.90;;;;;;5049881;28;20462;-71
2021/12/06 09:02:47;;;;;;;1999.90;999.90;;;2.40;99.90;;;;;;5054010;28;20451;-71
2021/12/06 09:05:14;;;;;;;1999.90;999.90;;;2.40;99.90;;;;;;5058850;28;20442;-72
2021/12/06 09:07:41;;;;;;;1999.90;999.90;;;2.40;99.90;;;;;;5063274;28;20454;-72
2021/12/06 09:10:12;;;;;;;1999.90;999.90;;;2.40;99.90;;;;;;5051794;28;20466;-69
2021/12/06 09:12:39;;;;;;;1999.90;999.90;;;2.40;99.90;;;;;;5063781;28;20844;-71
2021/12/06 09:15:11;;;;;;;1999.90;999.90;;;2.40;99.90;;;;;;5050790;28;20504;-72
2021/12/06 09:17:40;;;;;;;1999.90;999.90;;;2.40;99.90;;;;;;5065505;28;20462;-72
2021/12/06 09:20:10;;;;;;;1999.90;999.90;;;2.40;99.90;;;;;;5063465;28;20866;-71
2021/12/06 09:22:37;;;;;;;1999.90;999.90;;;2.40;99.90;;;;;;5071442;28;20864;-71
2021/12/06 09:25:05;;;;;;;1999.90;999.90;;;2.40;99.90;;;;;;5071251;28;20510;-71
2021/12/06 09:27:32;;;;;;;1999.90;999.90;;;2.40;99.90;;;;;;5056278;28;20489;-72
2021/12/06 09:29:59;;;;;;;1999.90;999.90;;;2.40;99.90;;;;;;5053255;28;20516;-71
2021/12/06 09:32:27;;;;;;;1999.90;999.90;;;2.50;99.90;;;;;;5052873;28;21066;-71
2021/12/06 09:34:58;;;;;;;1999.90;999.90;;;2.30;99.90;;;;;;5054742;28;20468;-69
2021/12/06 09:37:25;;;;;;;1999.90;999.90;;;2.30;99.90;;;;;;5053713;28;20874;-71
2021/12/06 09:39:52;;;;;;;1999.90;999.90;;;2.30;99.90;;;;;;5062825;28;20458;-73
2021/12/06 09:42:19;;;;;;;1999.90;999.90;;;2.30;99.90;;;;;;5052524;28;20555;-71
2021/12/06 09:44:46;;;;;;;1999.90;999.90;;;2.40;99.90;;;;;;5057573;28;20815;-72
2021/12/06 09:47:13;;;;;;;1999.90;999.90;;;2.40;99.90;;;;;;5064119;28;20900;-71
2021/12/06 09:49:41;;;;;;;1999.90;999.90;;;2.50;99.90;;;;;;5067173;28;20452;-70
2021/12/06 09:52:09;;;;;;;1999.90;999.90;;;2.50;99.90;;;;;;5074831;28;20526;-69
2021/12/06 09:54:39;;;;;;;1999.90;999.90;;;2.60;99.90;;;;;;5060270;28;20458;-69
2021/12/06 09:57:08;;;;;;;1999.90;999.90;;;2.70;99.90;;;;;;5055206;28;20466;-68
2021/12/06 09:59:37;;;;;;;1999.90;999.90;;;2.70;99.90;;;;;;5054607;28;20855;-68
2021/12/06 10:02:08;;;;;;;1999.90;999.90;;;2.60;99.90;;;;;;5054127;28;20508;-69
2021/12/06 10:04:38;;;;;;;1999.90;999.90;;;2.70;99.90;;;;;;5063327;28;20468;-69
2021/12/06 10:07:09;;;;;;;1999.90;999.90;;;2.70;99.90;;;;;;5074406;28;20965;-69
2021/12/06 10:09:37;;;;;;;1999.90;999.90;;;2.70;99.90;;;;;;5065385;28;20916;-69
2021/12/06 10:12:05;;;;;;;1999.90;999.90;;;2.70;99.90;;;;;;5062337;28;20534;-69
2021/12/06 10:14:32;;;;;;;1999.90;999.90;;;2.60;99.90;;;;;;5059777;28;20511;-69
2021/12/06 10:16:59;;;;;;;1999.90;999.90;;;2.50;99.90;;;;;;5069487;28;20469;-70
2021/12/06 10:19:26;;;;;;;1999.90;999.90;;;2.50;99.90;;;;;;5074429;28;20445;-69
2021/12/06 10:21:53;;;;;;;1999.90;999.90;;;2.50;99.90;;;;;;5055423;28;20529;-69
2021/12/06 10:24:24;;;;;;;1999.90;999.90;;;2.50;99.90;;;;;;5059415;28;20869;-68
2021/12/06 10:27:01;;;;;;;1999.90;999.90;;;2.40;99.90;;;;;;5057484;28;20478;-72
2021/12/06 10:29:33;;;;;;;1999.90;999.90;;;2.50;99.90;;;;;;5065786;28;20441;-71
2021/12/06 10:31:59;;;;;;;1999.90;999.90;;;2.50;99.90;;;;;;5074004;28;20497;-71
2021/12/06 10:34:29;;;;;;;1999.90;999.90;;;2.40;99.90;;;;;;5067907;28;20504;-71
2021/12/06 10:36:56;;;;;;;1999.90;999.90;;;2.30;99.90;;;;;;5054085;28;20481;-71
2021/12/06 10:39:24;;;;;;;1999.90;999.90;;;2.30;99.90;;;;;;5053734;28;20953;-71
2021/12/06 10:41:53;;;;;;;1999.90;999.90;;;2.40;99.90;;;;;;5053678;28;20492;-71
2021/12/06 10:44:20;;;;;;;1999.90;999.90;;;2.50;99.90;;;;;;5058592;28;20522;-71
2021/12/06 10:46:49;;;;;;;1999.90;999.90;;;2.40;99.90;;;;;;5072837;28;20526;-71
2021/12/06 10:49:19;;;;;;;1999.90;999.90;;;2.50;99.90;;;;;;5068645;28;20442;-71
2021/12/06 10:51:46;;;;;;;1999.90;999.90;;;2.50;99.90;;;;;;5053709;28;20486;-71
2021/12/06 10:54:20;;;;;;;1999.90;999.90;;;2.50;99.90;;;;;;5068311;28;20853;-68
2021/12/06 10:56:52;;;;;;;1999.90;999.90;;;2.50;99.90;;;;;;5063377;28;20503;-69
2021/12/06 10:59:22;;;;;;;1999.90;999.90;;;2.40;99.90;;;;;;5073707;28;20437;-69
2021/12/06 11:01:51;;;;;;;1999.90;999.90;;;2.40;99.90;;;;;;5054626;28;20446;-69
2021/12/06 11:04:20;;;;;;;1999.90;999.90;;;2.40;99.90;;;;;;5071988;28;21023;-69
2021/12/06 11:06:50;;;;;;;1999.90;999.90;;;2.40;99.90;;;;;;5063602;28;20478;-69
2021/12/06 11:09:20;;;;;;;1999.90;999.90;;;2.50;99.90;;;;;;5053378;28;20930;-69
2021/12/06 11:11:51;;;;;;;1999.90;999.90;;;2.50;99.90;;;;;;5056376;28;20457;-71
2021/12/06 11:14:22;;;;;;;1999.90;999.90;;;2.50;99.90;;;;;;5070094;28;20499;-72
2021/12/06 11:16:52;;;;;;;1999.90;999.90;;;2.50;99.90;;;;;;5073413;28;20501;-71
2021/12/06 11:19:21;;;;;;;1999.90;999.90;;;2.50;99.90;;;;;;5073457;28;20438;-71
2021/12/06 11:21:50;;;;;;;1999.90;999.90;;;2.70;99.90;;;;;;5058480;28;20473;-71
2021/12/06 11:24:20;;;;;;;1999.90;999.90;;;2.60;99.90;;;;;;5066679;28;20445;-71
2021/12/06 11:27:00;;;;;;;1999.90;999.90;;;2.60;99.90;;;;;;5070054;28;20989;-70
2021/12/06 11:29:29;;;;;;;1999.90;999.90;;;2.50;99.90;;;;;;5073219;28;20437;-71
2021/12/06 11:32:05;;;;;;;1999.90;999.90;;;2.60;99.90;;;;;;5071949;28;20481;-71
2021/12/06 11:34:36;;;;;;;1999.90;999.90;;;2.60;99.90;;;;;;5056683;28;20453;-71
2021/12/06 11:37:04;;;;;;;1999.90;999.90;;;2.70;99.90;;;;;;5052969;28;20512;-71
2021/12/06 11:39:31;;;;;;;1999.90;999.90;;;2.80;99.90;;;;;;5052971;28;20478;-71
2021/12/06 11:41:59;;;;;;;1999.90;999.90;;;2.80;99.90;;;;;;5052687;28;20438;-71
2021/12/06 11:44:30;;;;;;;1999.90;999.90;;;2.90;99.90;;;;;;5067137;28;20456;-71
2021/12/06 11:47:08;;;;;;;1999.90;999.90;;;2.80;99.90;;;;;;5065239;28;20474;-71
2021/12/06 11:49:38;;;;;;;1999.90;999.90;;;2.90;99.90;;;;;;5052875;28;20493;-72
2021/12/06 11:52:08;;;;;;;1999.90;999.90;;;2.90;99.90;;;;;;5056853;28;20519;-72
2021/12/06 11:54:42;;;;;;;1999.90;999.90;;;2.90;99.90;;;;;;5056150;28;20508;-70
2021/12/06 11:57:17;;;;;;;1999.90;999.90;;;2.90;99.90;;;;;;5052485;28;20887;-71
2021/12/06 11:59:54;;;;;;;1999.90;999.90;;;2.80;99.90;;;;;;5052888;28;20426;-71
2021/12/06 12:02:42;;;;;;;1999.90;999.90;;;2.80;99.90;;;;;;5070283;28;20452;-70
2021/12/06 12:05:23;;;;;;;1999.90;999.90;;;2.90;99.90;;;;;;5052153;28;20423;-69
2021/12/06 12:07:59;;;;;;;1999.90;999.90;;;2.90;99.90;;;;;;5052041;28;20504;-68
2021/12/06 12:10:32;;;;;;;1999.90;999.90;;;3.00;99.90;;;;;;5051190;28;21125;-69
2021/12/06 12:13:00;;;;;;;1999.90;999.90;;;3.00;99.90;;;;;;5052268;28;20504;-68
2021/12/06 12:15:27;;;;;;;1999.90;999.90;;;3.10;99.90;;;;;;5052099;28;20499;-68
2021/12/06 12:17:54;;;;;;;1999.90;999.90;;;3.10;99.90;;;;;;5052250;28;20454;-69
2021/12/06 12:20:23;;;;;;;1999.90;999.90;;;3.10;99.90;;;;;;5051764;28;21010;-69
2021/12/06 12:22:51;;;;;;;1999.90;999.90;;;3.00;99.90;;;;;;5052109;28;20482;-69